Time;durP1;ratioP1;P1;durP2;ratioP2;P2;SDS_P1;SDS_P2;PMS_P1;PMS_P2;Temp;Humidity;BMP_temperature;BMP_pressure;BME280_temperature;BME280_humidity;BME280_pressure;Samples;Min_cycle;Max_cycle;Signal;HPM_P1;HPM_P2
2022/06/25 00:01:19;;;;;;;7.15;5.15;;;;;;;18.67;76.43;100772.91;5009412;28;20029;-58
2022/06/25 00:03:45;;;;;;;7.90;5.30;;;;;;;18.66;76.26;100772.94;5011259;28;20100;-59
2022/06/25 00:06:11;;;;;;;7.80;5.10;;;;;;;18.65;76.12;100784.38;5011407;28;20306;-59
2022/06/25 00:08:37;;;;;;;9.93;5.50;;;;;;;18.60;76.24;100782.66;5011245;28;20029;-59
2022/06/25 00:11:04;;;;;;;7.38;4.90;;;;;;;18.59;75.91;100785.31;5010356;28;20437;-59
2022/06/25 00:13:30;;;;;;;8.48;5.32;;;;;;;18.58;76.22;100784.44;5011109;28;20029;-59
2022/06/25 00:15:56;;;;;;;6.82;5.03;;;;;;;18.57;76.32;100789.75;5011126;28;20030;-59
2022/06/25 00:18:21;;;;;;;8.95;5.22;;;;;;;18.55;76.25;100795.03;5010914;28;20049;-58
2022/06/25 00:20:47;;;;;;;9.95;5.05;;;;;;;18.53;75.81;100786.25;5010228;28;20386;-59
2022/06/25 00:23:13;;;;;;;6.78;5.35;;;;;;;18.55;75.85;100795.03;5010975;28;20030;-58
2022/06/25 00:25:38;;;;;;;8.15;5.50;;;;;;;18.51;76.40;100795.94;5011084;28;20481;-59
2022/06/25 00:28:04;;;;;;;9.63;5.78;;;;;;;18.48;76.16;100785.44;5010827;28;20029;-59
2022/06/25 00:30:30;;;;;;;9.05;5.43;;;;;;;18.48;76.21;100788.06;5010050;28;20018;-59
2022/06/25 00:32:56;;;;;;;8.40;5.38;;;;;;;18.47;76.17;100799.50;5011221;28;20022;-59
2022/06/25 00:35:22;;;;;;;9.38;5.38;;;;;;;18.42;76.87;100786.38;5010761;28;20397;-59
2022/06/25 00:37:47;;;;;;;9.63;5.53;;;;;;;18.40;76.34;100792.53;5010825;28;20033;-59
2022/06/25 00:40:13;;;;;;;7.53;5.35;;;;;;;18.37;76.29;100787.31;5008634;28;20029;-59
2022/06/25 00:42:45;;;;;;;9.65;5.60;;;;;;;18.37;76.64;100795.22;5009430;28;20048;-59
2022/06/25 00:45:11;;;;;;;10.43;5.63;;;;;;;18.33;76.98;100793.50;5008675;28;20505;-59
2022/06/25 00:47:37;;;;;;;9.30;6.07;;;;;;;18.29;77.06;100792.63;5009554;28;20056;-59
2022/06/25 00:50:03;;;;;;;9.15;5.97;;;;;;;18.29;76.82;100792.63;5010060;28;20034;-59
2022/06/25 00:52:33;;;;;;;10.02;5.80;;;;;;;18.28;76.95;100797.91;5010514;28;20480;-59
2022/06/25 00:55:10;;;;;;;10.60;5.70;;;;;;;18.26;76.85;100797.94;5009512;28;20436;-59
2022/06/25 00:57:38;;;;;;;8.82;6.03;;;;;;;18.24;77.17;100800.59;5009846;28;20040;-58
2022/06/25 01:00:09;;;;;;;11.68;5.97;;;;;;;18.24;77.00;100795.31;5009817;28;20473;-58
2022/06/25 01:02:36;;;;;;;10.18;5.90;;;;;;;18.24;77.04;100799.72;5008962;28;20046;-58
2022/06/25 01:05:06;;;;;;;10.23;6.13;;;;;;;18.24;77.02;100805.84;5009618;28;20033;-58
2022/06/25 01:07:34;;;;;;;8.32;5.70;;;;;;;18.21;77.38;100808.53;5010363;28;20104;-58
2022/06/25 01:09:59;;;;;;;10.77;6.35;;;;;;;18.19;77.28;100810.31;5010383;28;20076;-58
2022/06/25 01:12:24;;;;;;;10.00;6.60;;;;;;;18.13;77.52;100818.25;5009441;28;20033;-58
2022/06/25 01:15:08;;;;;;;12.63;6.38;;;;;;;18.15;76.86;100813.88;5010484;28;20025;-58
2022/06/25 01:17:53;;;;;;;10.45;6.40;;;;;;;18.14;76.64;100814.75;5010118;28;20076;-58
2022/06/25 01:20:21;;;;;;;10.07;6.65;;;;;;;18.13;77.28;100817.41;5009121;28;20528;-58
2022/06/25 01:22:47;;;;;;;12.40;6.85;;;;;;;18.10;77.19;100820.91;5010420;28;20030;-58
2022/06/25 01:25:13;;;;;;;10.07;6.68;;;;;;;18.09;77.36;100827.09;5010369;28;20026;-58
2022/06/25 01:27:39;;;;;;;10.85;6.95;;;;;;;18.05;77.50;100825.38;5010327;28;20052;-59
2022/06/25 01:30:09;;;;;;;12.13;6.53;;;;;;;18.05;77.37;100831.50;5007685;28;20030;-59
2022/06/25 01:32:34;;;;;;;10.70;6.97;;;;;;;18.05;77.12;100838.56;5010060;28;20068;-59
2022/06/25 01:35:00;;;;;;;11.63;6.65;;;;;;;18.02;77.23;100842.09;5009969;28;20034;-59
2022/06/25 01:37:25;;;;;;;10.85;6.60;;;;;;;18.01;77.07;100835.06;5010045;28;20034;-59
2022/06/25 01:39:55;;;;;;;14.70;7.00;;;;;;;17.99;77.35;100844.75;5007999;28;20049;-59
2022/06/25 01:45:12;;;;;;;16.35;6.82;;;;;;;17.98;77.04;100840.34;5010725;28;20444;-59
2022/06/25 01:47:38;;;;;;;10.52;6.57;;;;;;;17.96;77.23;100852.69;5010140;28;20113;-59
2022/06/25 01:50:06;;;;;;;10.95;6.72;;;;;;;17.96;77.27;100857.06;5008136;28;20030;-59
2022/06/25 01:52:32;;;;;;;11.88;6.88;;;;;;;17.94;77.33;100856.22;5009891;28;20033;-58
2022/06/25 01:54:57;;;;;;;13.18;7.40;;;;;;;17.93;76.78;100860.63;5009913;28;20106;-59
2022/06/25 01:57:22;;;;;;;12.65;6.85;;;;;;;17.91;77.15;100870.28;5009795;28;20030;-59
2022/06/25 01:59:48;;;;;;;10.27;6.57;;;;;;;17.88;77.22;100875.53;5008948;28;20064;-59
2022/06/25 02:02:14;;;;;;;13.38;7.20;;;;;;;17.88;77.02;100875.53;5005799;28;20030;-58
2022/06/25 02:04:40;;;;;;;15.00;7.47;;;;;;;17.84;77.06;100872.06;5010029;28;20289;-59
2022/06/25 02:07:05;;;;;;;12.38;6.90;;;;;;;17.82;77.15;100871.19;5009793;28;20664;-59
2022/06/25 02:09:30;;;;;;;11.73;6.82;;;;;;;17.80;77.28;100874.69;5009848;28;20048;-59
2022/06/25 02:11:56;;;;;;;13.40;7.25;;;;;;;17.80;77.08;100877.34;5011319;28;20478;-59
2022/06/25 02:14:21;;;;;;;13.82;6.97;;;;;;;17.75;77.41;100880.00;5013418;28;20030;-59
2022/06/25 02:16:47;;;;;;;12.32;7.05;;;;;;;17.74;77.05;100886.16;5013058;28;20481;-59
2022/06/25 02:19:12;;;;;;;16.02;7.40;;;;;;;17.71;77.08;100879.16;5013266;28;20511;-59
2022/06/25 02:21:37;;;;;;;14.23;6.93;;;;;;;17.70;77.07;100884.44;5012451;28;20124;-60
2022/06/25 02:24:03;;;;;;;13.00;7.13;;;;;;;17.67;77.47;100884.44;5013007;28;20068;-59
2022/06/25 02:26:28;;;;;;;11.57;7.13;;;;;;;17.67;76.99;100889.69;5012218;28;20126;-59
2022/06/25 02:28:54;;;;;;;12.27;6.97;;;;;;;17.68;76.75;100899.38;5013016;28;20066;-58
2022/06/25 02:31:19;;;;;;;11.55;7.15;;;;;;;17.67;77.04;100897.59;5012207;28;20122;-58
2022/06/25 02:33:44;;;;;;;13.57;7.25;;;;;;;17.65;77.04;100899.38;5011557;28;20025;-58
2022/06/25 02:36:10;;;;;;;10.68;6.45;;;;;;;17.62;76.99;100907.31;5012931;28;20018;-59
2022/06/25 02:38:35;;;;;;;12.60;6.60;;;;;;;17.59;77.49;100905.56;5012856;28;20389;-58
2022/06/25 02:41:00;;;;;;;9.35;6.55;;;;;;;17.61;77.45;100909.06;5012272;28;20477;-59
2022/06/25 02:43:26;;;;;;;10.60;6.80;;;;;;;17.60;77.30;100912.59;5012712;28;20032;-58
2022/06/25 02:45:51;;;;;;;12.57;7.40;;;;;;;17.60;76.58;100903.78;5012870;28;20041;-58
2022/06/25 02:48:16;;;;;;;14.50;7.07;;;;;;;17.60;77.48;100907.31;5012710;28;20026;-59
2022/06/25 02:50:41;;;;;;;13.45;7.47;;;;;;;17.60;77.00;100911.69;5012064;28;20366;-59
2022/06/25 02:53:07;;;;;;;14.80;7.25;;;;;;;17.59;76.86;100916.09;5012529;28;20026;-59
2022/06/25 03:01:01;;;;;;;12.55;7.55;;;;;;;17.57;76.41;100923.16;5011956;28;20129;-59
2022/06/25 03:03:26;;;;;;;11.75;7.65;;;;;;;17.54;77.06;100925.78;5011590;28;20125;-59
2022/06/25 03:05:51;;;;;;;12.43;7.85;;;;;;;17.52;77.13;100924.91;5012497;28;20022;-59
2022/06/25 03:08:17;;;;;;;13.27;8.43;;;;;;;17.49;77.46;100924.91;5012818;28;20033;-59
2022/06/25 03:10:42;;;;;;;14.05;8.25;;;;;;;17.46;77.81;100920.53;5011620;28;20037;-59
2022/06/25 03:13:10;;;;;;;13.80;8.70;;;;;;;17.44;77.90;100921.41;5012286;28;20029;-59
2022/06/25 03:15:35;;;;;;;14.85;8.98;;;;;;;17.40;77.65;100919.69;5011038;28;20026;-58
2022/06/25 03:18:00;;;;;;;17.17;9.15;;;;;;;17.39;78.12;100924.06;5012101;28;20085;-58
2022/06/25 03:20:25;;;;;;;17.25;9.20;;;;;;;17.36;78.08;100924.94;5011675;28;20120;-59
2022/06/25 03:22:51;;;;;;;13.18;8.13;;;;;;;17.35;78.13;100928.50;5011433;28;20262;-58
2022/06/25 03:25:16;;;;;;;13.32;8.50;;;;;;;17.32;77.81;100917.97;5012090;28;20026;-58
2022/06/25 03:27:41;;;;;;;15.57;8.98;;;;;;;17.31;78.34;100921.47;5012270;28;20108;-58
2022/06/25 03:30:07;;;;;;;16.60;8.77;;;;;;;17.28;78.35;100921.47;5011317;28;20113;-58
2022/06/25 03:32:32;;;;;;;12.50;8.30;;;;;;;17.28;78.50;100926.75;5012110;28;20030;-58
2022/06/25 03:34:57;;;;;;;18.83;8.40;;;;;;;17.26;78.64;100927.63;5012353;28;20457;-58
2022/06/25 03:37:23;;;;;;;12.43;7.53;;;;;;;17.21;78.48;100933.78;5011800;28;20091;-58
2022/06/25 03:39:48;;;;;;;11.88;7.93;;;;;;;17.22;78.18;100932.03;5011732;28;20455;-58
2022/06/25 03:42:13;;;;;;;12.10;8.23;;;;;;;17.21;79.32;100930.28;5011001;28;20040;-58
2022/06/25 03:44:39;;;;;;;14.23;8.38;;;;;;;17.18;79.08;100935.56;5011819;28;20025;-58
2022/06/25 03:47:04;;;;;;;13.93;8.05;;;;;;;17.18;79.15;100933.78;5011701;28;20022;-58
2022/06/25 03:49:30;;;;;;;12.77;8.00;;;;;;;17.18;79.59;100930.28;5011596;28;20025;-58
2022/06/25 03:51:55;;;;;;;13.70;8.18;;;;;;;17.19;79.44;100943.44;5010816;28;20029;-58
2022/06/25 03:54:21;;;;;;;15.77;8.38;;;;;;;17.17;79.47;100942.56;5011145;28;20033;-58
2022/06/25 03:56:46;;;;;;;15.70;8.85;;;;;;;17.16;79.78;100942.56;5011455;28;20478;-59
2022/06/25 03:59:12;;;;;;;14.73;8.50;;;;;;;17.16;79.87;100940.84;5011178;28;20040;-58
2022/06/25 04:01:37;;;;;;;13.50;8.50;;;;;;;17.18;80.07;100938.19;5010846;28;20038;-58
2022/06/25 04:04:02;;;;;;;11.95;8.05;;;;;;;17.18;80.52;100936.44;5010700;28;20581;-58
2022/06/25 04:06:28;;;;;;;13.60;8.82;;;;;;;17.17;80.18;100936.44;5011363;28;20026;-58
2022/06/25 04:08:53;;;;;;;13.43;8.05;;;;;;;17.20;80.37;100934.66;5010407;28;20049;-58
2022/06/25 04:11:19;;;;;;;13.50;8.23;;;;;;;17.23;80.08;100943.44;5010883;28;20030;-59
2022/06/25 04:13:44;;;;;;;14.00;8.27;;;;;;;17.24;79.83;100945.22;5011224;28;20496;-58
2022/06/25 04:16:10;;;;;;;14.45;8.38;;;;;;;17.23;79.83;100946.06;5010453;28;20034;-58
2022/06/25 04:18:35;;;;;;;14.75;8.20;;;;;;;17.22;80.48;100945.22;5011192;28;20478;-58
2022/06/25 04:21:00;;;;;;;14.48;8.55;;;;;;;17.24;80.15;100947.84;5011256;28;20018;-59
2022/06/25 04:23:26;;;;;;;12.30;8.57;;;;;;;17.22;80.50;100947.84;5011091;28;20504;-59
2022/06/25 04:25:51;;;;;;;11.05;8.32;;;;;;;17.23;80.50;100948.72;5009405;28;20057;-59
2022/06/25 04:31:01;;;;;;;14.25;8.30;;;;;;;17.24;81.04;100955.75;5010998;28;20061;-60
2022/06/25 04:33:26;;;;;;;12.73;8.20;;;;;;;17.24;80.59;100948.69;5010878;28;20036;-60
2022/06/25 04:35:51;;;;;;;20.10;9.10;;;;;;;17.24;81.05;100956.59;5010046;28;20026;-59
2022/06/25 04:38:17;;;;;;;12.65;8.35;;;;;;;17.25;81.20;100960.09;5010723;28;20373;-59
2022/06/25 04:40:42;;;;;;;12.02;8.55;;;;;;;17.27;81.30;100961.00;5010604;28;20504;-59
2022/06/25 04:43:07;;;;;;;16.45;8.15;;;;;;;17.30;81.09;100972.38;5010691;28;20400;-59
2022/06/25 04:45:33;;;;;;;19.00;9.05;;;;;;;17.32;80.88;100967.09;5009856;28;20018;-59
2022/06/25 04:48:00;;;;;;;13.07;8.35;;;;;;;17.34;81.11;100968.88;5018867;28;20067;-59
2022/06/25 04:50:25;;;;;;;12.85;8.00;;;;;;;17.36;80.67;100972.34;5011234;28;20396;-59
2022/06/25 04:52:51;;;;;;;13.43;8.63;;;;;;;17.37;80.66;100974.13;5017035;28;20048;-59
2022/06/25 04:55:16;;;;;;;14.90;8.45;;;;;;;17.40;81.78;100975.88;5022101;28;20117;-59
2022/06/25 04:57:41;;;;;;;12.18;8.32;;;;;;;17.41;81.28;100980.28;5010760;28;20088;-59
2022/06/25 05:00:07;;;;;;;17.85;8.43;;;;;;;17.44;81.68;100977.63;5010320;28;20105;-59
2022/06/25 05:02:33;;;;;;;13.63;8.18;;;;;;;17.47;81.44;100982.88;5011738;28;20077;-59
2022/06/25 05:04:58;;;;;;;11.75;8.35;;;;;;;17.50;80.96;100985.50;5014281;28;20021;-59
2022/06/25 05:07:23;;;;;;;11.88;7.80;;;;;;;17.52;81.19;100988.13;5014896;28;20009;-59
2022/06/25 05:09:48;;;;;;;15.55;8.57;;;;;;;17.53;80.23;100988.13;5015223;28;20101;-59
2022/06/25 05:13:11;;;;;;;15.00;8.10;;;;;;;17.57;80.26;100991.66;5010341;28;20030;-59
2022/06/25 05:14:59;;;;;;;13.20;8.02;;;;;;;17.56;80.86;100990.75;5010206;28;20397;-59
2022/06/25 05:17:24;;;;;;;14.02;8.27;;;;;;;17.58;80.92;100992.50;5013556;28;20076;-59
2022/06/25 05:19:50;;;;;;;15.10;9.00;;;;;;;17.59;80.47;100996.91;5009709;28;20112;-59
2022/06/25 05:22:15;;;;;;;13.57;8.52;;;;;;;17.59;80.33;100991.63;5008826;28;20022;-59
2022/06/25 05:24:40;;;;;;;12.57;8.00;;;;;;;17.60;80.32;101001.28;5008869;28;20097;-59
2022/06/25 05:27:05;;;;;;;13.63;8.77;;;;;;;17.61;80.25;100996.03;5008197;28;20571;-59
2022/06/25 05:29:31;;;;;;;14.10;8.40;;;;;;;17.61;80.53;100998.66;5010047;28;20037;-59
2022/06/25 05:31:56;;;;;;;16.63;8.80;;;;;;;17.63;80.45;100999.53;5010262;28;20034;-59
2022/06/25 05:34:21;;;;;;;16.58;8.75;;;;;;;17.66;80.67;101003.91;5010455;28;20040;-59
2022/06/25 05:36:47;;;;;;;18.75;8.70;;;;;;;17.69;81.14;101003.91;5009075;28;20033;-59
2022/06/25 05:39:12;;;;;;;14.48;8.05;;;;;;;17.72;80.78;101006.53;5010270;28;20040;-59
2022/06/25 05:41:37;;;;;;;13.85;8.15;;;;;;;17.76;80.70;100999.50;5021362;28;20112;-59
2022/06/25 05:44:03;;;;;;;16.95;8.65;;;;;;;17.80;80.92;101010.03;5008751;28;20026;-59
2022/06/25 05:46:28;;;;;;;19.15;8.68;;;;;;;17.83;79.86;101006.47;5015445;28;20022;-59
2022/06/25 05:48:53;;;;;;;19.52;8.27;;;;;;;17.85;79.77;101017.91;5021008;28;20030;-60
2022/06/25 05:51:19;;;;;;;16.90;8.30;;;;;;;17.86;79.94;101015.25;5012145;28;20552;-60
2022/06/25 05:53:44;;;;;;;14.07;7.85;;;;;;;17.89;79.92;101017.00;5013752;28;20034;-60
2022/06/25 05:56:09;;;;;;;14.45;8.02;;;;;;;17.90;79.73;101024.94;5012196;28;20029;-59
2022/06/25 05:58:34;;;;;;;12.60;8.05;;;;;;;17.94;79.85;101027.56;5013682;28;20030;-60
2022/06/25 06:01:00;;;;;;;14.00;9.10;;;;;;;17.95;79.35;101024.06;5013720;28;20259;-59
2022/06/25 06:03:25;;;;;;;15.80;8.85;;;;;;;17.97;80.05;101027.56;5013476;28;20100;-59
2022/06/25 06:05:50;;;;;;;14.23;8.60;;;;;;;17.98;79.48;101029.31;5012560;28;20129;-60
2022/06/25 06:08:16;;;;;;;19.13;9.25;;;;;;;18.01;79.35;101029.31;5012846;28;20088;-59
2022/06/25 06:10:41;;;;;;;15.30;8.63;;;;;;;18.05;79.75;101045.09;5013624;28;20053;-59
2022/06/25 06:13:06;;;;;;;15.43;8.48;;;;;;;18.09;79.56;101048.59;5011221;28;20386;-59
2022/06/25 06:15:32;;;;;;;16.30;8.77;;;;;;;18.12;79.83;101040.69;5012610;28;20061;-59
2022/06/25 06:17:57;;;;;;;17.52;8.93;;;;;;;18.16;79.83;101042.44;5013341;28;20489;-60
2022/06/25 06:20:22;;;;;;;13.68;8.45;;;;;;;18.19;78.93;101049.41;5013233;28;20454;-60
2022/06/25 06:22:48;;;;;;;15.75;8.35;;;;;;;18.19;79.23;101045.03;5013298;28;20029;-59
2022/06/25 06:25:13;;;;;;;14.63;7.97;;;;;;;18.23;80.20;101049.44;5013261;28;20425;-60
2022/06/25 06:27:38;;;;;;;14.65;8.65;;;;;;;18.27;79.07;101057.31;5012441;28;20029;-59
2022/06/25 06:30:05;;;;;;;13.95;8.77;;;;;;;18.28;78.99;101048.50;5011974;28;20037;-60
2022/06/25 06:32:30;;;;;;;17.80;9.27;;;;;;;18.32;78.70;101058.16;5012979;28;20469;-60
2022/06/25 06:34:56;;;;;;;16.77;8.63;;;;;;;18.34;78.18;101057.28;5011692;28;20018;-60
2022/06/25 06:37:21;;;;;;;16.65;8.43;;;;;;;18.38;78.94;101060.78;5012592;28;20030;-60
2022/06/25 06:39:46;;;;;;;18.25;9.25;;;;;;;18.40;78.23;101065.16;5011818;28;20116;-60
2022/06/25 06:42:12;;;;;;;20.70;8.52;;;;;;;18.41;78.28;101061.63;5012567;28;20413;-60
2022/06/25 06:44:37;;;;;;;16.98;8.40;;;;;;;18.46;78.60;101061.59;5011689;28;20058;-60
2022/06/25 06:47:03;;;;;;;12.85;8.43;;;;;;;18.47;77.76;101062.50;5012970;28;20029;-60
2022/06/25 06:49:28;;;;;;;17.02;8.98;;;;;;;18.47;78.31;101066.00;5012746;28;20052;-60
2022/06/25 06:51:53;;;;;;;17.45;8.82;;;;;;;18.48;78.18;101062.50;5012114;28;20037;-60
2022/06/25 06:54:18;;;;;;;14.63;8.75;;;;;;;18.50;78.55;101073.91;5012772;28;20042;-59
2022/06/25 06:56:44;;;;;;;14.75;8.30;;;;;;;18.53;78.46;101068.59;5012452;28;20120;-59
2022/06/25 06:59:09;;;;;;;20.17;9.05;;;;;;;18.55;78.09;101073.88;5010506;28;20018;-60
2022/06/25 07:01:35;;;;;;;14.38;7.93;;;;;;;18.57;77.98;101070.34;5016987;28;20013;-59
2022/06/25 07:04:00;;;;;;;15.00;8.73;;;;;;;18.63;78.26;101065.91;5013954;28;20096;-60
2022/06/25 07:06:25;;;;;;;15.45;8.27;;;;;;;18.69;77.98;101063.25;5011680;28;20409;-60
2022/06/25 07:08:51;;;;;;;18.52;8.63;;;;;;;18.73;77.63;101063.19;5011762;28;20068;-60
2022/06/25 07:11:28;;;;;;;15.75;8.05;;;;;;;18.81;78.34;101065.78;5012602;28;20057;-60
2022/06/25 07:13:54;;;;;;;18.63;8.68;;;;;;;18.90;77.67;101071.03;5012639;28;20388;-60
2022/06/25 07:16:21;;;;;;;13.73;7.57;;;;;;;18.97;76.75;101060.44;5011140;28;20036;-60
2022/06/25 07:18:46;;;;;;;13.95;7.65;;;;;;;19.05;77.42;101069.19;5011268;28;20100;-60
2022/06/25 07:21:11;;;;;;;15.90;8.02;;;;;;;19.07;76.29;101072.66;5012233;28;20440;-60
2022/06/25 07:23:37;;;;;;;12.00;7.25;;;;;;;19.14;76.69;101084.06;5011194;28;20030;-60
2022/06/25 07:26:02;;;;;;;12.55;7.75;;;;;;;19.19;75.38;101067.31;5010650;28;20057;-59
2022/06/25 07:28:27;;;;;;;18.20;8.57;;;;;;;19.27;76.60;101070.72;5011970;28;20026;-58
2022/06/25 07:30:53;;;;;;;14.25;8.30;;;;;;;19.32;76.60;101062.78;5012205;28;20030;-59
2022/06/25 07:33:19;;;;;;;16.35;7.88;;;;;;;19.40;76.53;101074.13;5011894;28;20109;-59
2022/06/25 07:35:44;;;;;;;15.70;7.65;;;;;;;19.45;75.99;101074.97;5011013;28;20033;-58
2022/06/25 07:38:10;;;;;;;12.90;7.72;;;;;;;19.47;76.34;101080.25;5011720;28;20026;-59
2022/06/25 07:40:35;;;;;;;18.10;8.10;;;;;;;19.49;75.24;101078.47;5011718;28;20014;-59
2022/06/25 07:43:02;;;;;;;17.73;8.15;;;;;;;19.54;75.72;101074.03;5011758;28;20018;-59
2022/06/25 07:45:27;;;;;;;19.38;8.13;;;;;;;19.59;75.99;101074.84;5011579;28;20103;-59
2022/06/25 07:47:53;;;;;;;14.73;7.70;;;;;;;19.66;75.93;101078.28;5010932;28;20481;-59
2022/06/25 07:53:02;;;;;;;15.23;8.90;;;;;;;19.84;76.30;101071.09;5010335;28;20045;-58
2022/06/25 07:55:27;;;;;;;16.17;9.20;;;;;;;19.88;74.95;101073.69;5010708;28;20033;-59
2022/06/25 07:57:53;;;;;;;13.43;9.20;;;;;;;19.88;74.23;101081.63;5012148;28;20036;-60
2022/06/25 08:00:18;;;;;;;17.52;9.50;;;;;;;19.85;73.98;101079.00;5021202;28;20037;-57
2022/06/25 08:02:43;;;;;;;16.80;9.25;;;;;;;19.86;73.91;101074.63;5029352;28;20561;-56
2022/06/25 08:05:09;;;;;;;13.60;8.60;;;;;;;19.85;73.87;101079.00;5011070;28;20038;-58
2022/06/25 08:07:34;;;;;;;11.57;8.13;;;;;;;19.83;73.54;101075.50;5010462;28;20029;-62
2022/06/25 08:10:00;;;;;;;15.45;8.15;;;;;;;19.86;73.97;101083.41;5022911;28;20493;-62
2022/06/25 08:12:25;;;;;;;15.30;8.10;;;;;;;19.88;74.09;101080.75;5010265;28;20249;-62
2022/06/25 08:14:50;;;;;;;17.90;9.52;;;;;;;19.89;74.22;101075.44;5012563;28;20404;-62
2022/06/25 08:17:16;;;;;;;12.45;8.07;;;;;;;19.88;72.57;101078.09;5010963;28;20026;-60
2022/06/25 08:19:41;;;;;;;18.25;8.65;;;;;;;19.87;72.54;101082.53;5010792;28;20413;-63
2022/06/25 08:22:06;;;;;;;12.07;8.10;;;;;;;19.86;73.46;101074.63;5017033;28;20116;-61
2022/06/25 08:24:32;;;;;;;19.63;8.93;;;;;;;19.87;73.24;101086.91;5010884;28;20495;-61
2022/06/25 08:26:57;;;;;;;14.68;8.52;;;;;;;19.87;73.91;101086.91;5011307;28;20492;-63
2022/06/25 08:29:22;;;;;;;12.30;7.47;;;;;;;19.84;72.82;101093.09;5010210;28;20397;-63
2022/06/25 08:31:48;;;;;;;10.35;6.82;;;;;;;19.79;72.47;101093.16;5011112;28;20026;-67
2022/06/25 08:34:13;;;;;;;11.57;7.50;;;;;;;19.76;72.96;101098.47;5017992;28;20025;-67
2022/06/25 08:36:39;;;;;;;15.48;7.60;;;;;;;19.76;73.33;101094.94;5014922;28;20448;-70
2022/06/25 08:39:04;;;;;;;12.82;7.20;;;;;;;19.77;73.57;101094.06;5016611;28;20037;-67
2022/06/25 08:41:30;;;;;;;20.15;8.40;;;;;;;19.78;73.58;101082.56;5019548;28;20018;-66
2022/06/25 08:43:55;;;;;;;13.50;7.68;;;;;;;19.84;74.88;101084.31;5009673;28;20129;-67
2022/06/25 08:46:20;;;;;;;14.68;7.82;;;;;;;19.87;74.44;101082.53;5022444;28;20022;-67
2022/06/25 08:48:50;;;;;;;10.77;6.97;;;;;;;19.88;74.09;101093.97;5010524;28;20366;-67
2022/06/25 08:51:18;;;;;;;12.63;7.60;;;;;;;19.89;74.40;101091.31;5011770;28;20091;-66
2022/06/25 08:53:44;;;;;;;11.80;7.23;;;;;;;19.92;73.95;101090.41;5025505;28;20385;-67
2022/06/25 08:56:09;;;;;;;10.98;6.63;;;;;;;19.95;74.00;101095.66;5013154;28;20037;-67
2022/06/25 08:58:35;;;;;;;9.98;7.03;;;;;;;19.95;73.54;101096.53;5010620;28;20431;-67
2022/06/25 09:01:01;;;;;;;8.27;6.90;;;;;;;19.98;74.73;101091.19;5018433;28;20034;-68
2022/06/25 09:03:26;;;;;;;12.13;7.60;;;;;;;20.04;75.15;101084.94;5019882;28;20054;-68
2022/06/25 09:05:52;;;;;;;12.32;7.55;;;;;;;20.12;75.20;101091.03;5012287;28;20022;-67
2022/06/25 09:08:17;;;;;;;10.55;7.05;;;;;;;20.19;73.80;101091.84;5028141;28;20033;-59
2022/06/25 09:10:52;;;;;;;11.40;7.38;;;;;;;20.25;73.70;101090.91;5014087;28;20030;-59
2022/06/25 09:13:25;;;;;;;15.35;8.25;;;;;;;20.36;74.91;101091.63;5009293;28;20029;-59
2022/06/25 09:15:50;;;;;;;12.40;7.63;;;;;;;20.40;72.93;101093.34;5010345;28;20030;-58
2022/06/25 09:18:17;;;;;;;11.80;7.68;;;;;;;20.46;73.33;101093.25;5010454;28;20381;-59
2022/06/25 09:21:05;;;;;;;9.35;6.80;;;;;;;20.52;72.78;101083.47;5008737;28;20089;-58
2022/06/25 09:23:33;;;;;;;13.27;6.53;;;;;;;20.53;72.21;101094.03;5013776;28;20814;-59
2022/06/25 09:26:11;;;;;;;12.80;6.57;;;;;;;20.56;72.11;101094.00;5018645;28;20501;-59
2022/06/25 09:28:41;;;;;;;9.68;7.10;;;;;;;20.58;72.48;101102.81;5004911;28;20025;-59
2022/06/25 09:31:07;;;;;;;11.52;6.63;;;;;;;20.58;73.02;101097.53;5019765;28;20298;-59
2022/06/25 09:33:34;;;;;;;11.30;6.97;;;;;;;20.63;72.86;101098.31;5008682;28;20037;-59
2022/06/25 09:36:00;;;;;;;9.73;6.30;;;;;;;20.66;73.44;101087.69;5007583;28;20022;-59
2022/06/25 09:38:26;;;;;;;10.90;6.80;;;;;;;20.73;73.26;101092.94;5007010;28;20317;-59
2022/06/25 09:40:57;;;;;;;11.45;6.63;;;;;;;20.74;72.07;101084.97;5008510;28;20022;-59
2022/06/25 09:43:25;;;;;;;13.05;6.53;;;;;;;20.86;73.36;101086.56;5008533;28;20021;-59
2022/06/25 09:45:53;;;;;;;10.23;6.53;;;;;;;20.93;71.66;101090.84;5008446;28;20022;-59
2022/06/25 09:48:25;;;;;;;9.55;7.43;;;;;;;21.04;72.51;101089.81;5008538;28;20033;-59
2022/06/25 09:51:05;;;;;;;8.43;6.70;;;;;;;21.10;71.39;101093.25;4997613;28;20018;-59
2022/06/25 09:53:30;;;;;;;11.75;7.38;;;;;;;21.14;71.32;101102.00;5008887;28;20025;-59
2022/06/25 09:55:56;;;;;;;9.23;6.55;;;;;;;21.15;69.09;101098.47;5009055;28;20037;-59
2022/06/25 09:58:22;;;;;;;9.80;5.97;;;;;;;21.16;69.28;101108.13;5009743;28;20030;-59
2022/06/25 10:00:47;;;;;;;10.23;5.95;;;;;;;21.18;69.84;101104.56;5009847;28;20494;-59
2022/06/25 10:03:13;;;;;;;9.10;5.50;;;;;;;21.21;67.75;101098.34;5008824;28;20106;-59
2022/06/25 10:05:41;;;;;;;9.40;5.70;;;;;;;21.23;68.68;101098.31;5009872;28;20559;-59
2022/06/25 10:08:10;;;;;;;7.57;5.15;;;;;;;21.26;68.39;101101.81;5009056;28;20568;-59
2022/06/25 10:10:45;;;;;;;9.65;5.18;;;;;;;21.28;69.08;101105.31;5009124;28;20087;-59
2022/06/25 10:13:10;;;;;;;14.07;6.10;;;;;;;21.31;68.42;101104.38;5009003;28;20036;-59
2022/06/25 10:15:37;;;;;;;10.60;5.75;;;;;;;21.35;69.17;101096.34;5009690;28;20034;-59
2022/06/25 10:18:12;;;;;;;10.32;6.30;;;;;;;21.37;68.14;101099.84;5009630;28;20033;-59
2022/06/25 10:20:39;;;;;;;11.70;6.35;;;;;;;21.49;67.17;101101.41;5009835;28;20030;-59
2022/06/25 10:23:06;;;;;;;11.23;6.85;;;;;;;21.62;67.53;101098.56;5009340;28;20435;-59
2022/06/25 10:25:32;;;;;;;9.60;5.93;;;;;;;21.69;67.06;101097.56;5009635;28;20033;-59
2022/06/25 10:28:10;;;;;;;10.63;6.80;;;;;;;21.81;68.06;101091.13;5009864;28;20079;-58
2022/06/25 10:30:36;;;;;;;11.40;6.18;;;;;;;21.86;69.00;101087.50;5009789;28;20026;-59
2022/06/25 10:33:02;;;;;;;8.57;5.70;;;;;;;21.96;69.50;101082.88;5012001;28;20022;-59
2022/06/25 10:35:33;;;;;;;8.95;5.22;;;;;;;22.08;69.04;101088.84;5011711;28;20022;-59
2022/06/25 10:38:13;;;;;;;8.85;5.18;;;;;;;22.12;67.36;101082.59;5013164;28;20105;-60
2022/06/25 10:40:52;;;;;;;8.60;4.78;;;;;;;22.14;66.27;101076.31;5013077;28;20036;-60
2022/06/25 10:43:47;;;;;;;7.40;4.93;;;;;;;22.21;66.24;101083.25;5012907;28;20073;-60
2022/06/25 10:46:25;;;;;;;8.82;4.80;;;;;;;22.32;66.60;101085.72;5008034;28;20033;-60
2022/06/25 10:48:50;;;;;;;6.55;4.20;;;;;;;22.39;64.05;101083.78;5012848;28;20492;-60
2022/06/25 10:51:29;;;;;;;6.83;4.30;;;;;;;22.46;65.54;101097.81;5012797;28;20033;-60
2022/06/25 10:53:55;;;;;;;7.15;4.30;;;;;;;22.42;64.42;101088.16;5012052;28;20419;-60
2022/06/25 10:56:20;;;;;;;7.68;4.50;;;;;;;22.43;64.89;101080.16;5011003;28;20038;-59
2022/06/25 10:58:47;;;;;;;7.90;4.18;;;;;;;22.49;65.41;101084.47;5012596;28;20029;-59
2022/06/25 11:01:20;;;;;;;8.32;3.95;;;;;;;22.50;63.12;101087.09;5012478;28;20030;-60
2022/06/25 11:03:51;;;;;;;6.95;3.70;;;;;;;22.50;63.03;101088.88;5011576;28;20056;-60
2022/06/25 11:06:29;;;;;;;7.38;4.03;;;;;;;22.55;63.74;101081.66;5012561;28;20105;-60
2022/06/25 11:09:02;;;;;;;5.78;3.90;;;;;;;22.66;63.54;101078.78;5012886;28;20033;-60
2022/06/25 11:11:30;;;;;;;8.82;4.32;;;;;;;22.70;63.61;101078.66;5011007;28;20025;-60
2022/06/25 11:13:58;;;;;;;5.90;4.07;;;;;;;22.75;62.62;101079.44;5011659;28;20088;-60
2022/06/25 11:16:24;;;;;;;7.88;4.00;;;;;;;22.85;64.09;101076.56;5011567;28;20049;-60
2022/06/25 11:18:58;;;;;;;7.80;4.10;;;;;;;22.98;63.12;101078.00;5013647;28;20033;-60
2022/06/25 11:21:32;;;;;;;5.15;3.95;;;;;;;23.02;60.08;101078.81;5009652;28;20037;-59
2022/06/25 11:24:13;;;;;;;5.75;3.40;;;;;;;23.00;60.47;101073.56;5018688;28;20059;-60
2022/06/25 11:29:52;;;;;;;6.18;3.95;;;;;;;23.18;61.06;101092.63;5010263;28;20044;-60
2022/06/25 11:32:27;;;;;;;8.18;4.20;;;;;;;23.25;61.02;101072.97;5018710;28;20104;-59
2022/06/25 11:34:54;;;;;;;5.43;4.00;;;;;;;23.35;60.85;101081.59;5010386;28;20025;-60